Terminal Aerodrome Forecast
Issued by NWS

Home | Current Version | Previous Version | Text Only | Print | Product List | Glossary On
Versions: 1 2 3 4 5 6 7 8 9 10 11 12
000
FTUS44 KLZK 221141
TAFHOT
TAF
KHOT 221141Z 2212/2312 08008KT 6SM BR VCSH OVC007
      TEMPO 2212/2215 4SM BR SCT007 OVC012
     FM221500 10009G16KT P6SM VCSH OVC012
     FM222000 11009G16KT P6SM -SHRA OVC015
     FM230200 10008KT 5SM SHRA BR VCTS OVC007CB=

USA.gov is the U.S. government's official web portal to all federal, state and local government web resources and services.